Aviation Digital Data Service (ADDS)

Output produced by METARs form (0722 UTC 01 June 2016)
found at http://www.aviationweather.gov/adds/metars/
 
KLNS 010653Z AUTO 00000KT 10SM FEW080 19/16 A3000 RMK AO2 SLP155 T01940156
KLNS 010553Z AUTO 00000KT 10SM CLR 19/16 A2999 RMK AO2 SLP152 T01890156 10267 20183 51002
KLNS 010453Z AUTO 00000KT 10SM CLR 19/15 A2999 RMK AO2 SLP150 T01940150 403060178
KLNS 010353Z AUTO 00000KT 10SM CLR 21/14 A2999 RMK AO2 SLP152 T02060144
KLNS 010253Z AUTO 00000KT 10SM CLR 23/15 A2998 RMK AO2 SLP150 T02330150 51010
KLNS 010153Z 28003KT 10SM CLR 23/15 A2998 RMK AO2 SLP150 T02280150
KLNS 010053Z 00000KT 10SM CLR 24/14 A2996 RMK AO2 SLP143 T02440144
KLNS 312353Z 30004KT 10SM CLR 27/13 A2995 RMK AO2 SLP140 T02670128 10306 20267 53003
KLNS 312253Z 32005KT 10SM CLR 28/12 A2995 RMK AO2 SLP139 T02830122
KLNS 312153Z 31006KT 10SM FEW080 29/12 A2994 RMK AO2 SLP136 T02890117
KLNS 312053Z 31008KT 10SM BKN075 30/12 A2994 RMK AO2 SLP136 T03000122 56010
KLNS 311953Z 02004KT 10SM SCT070 30/12 A2995 RMK AO2 SLP139 T03000117
KLNS 311853Z 31008KT 10SM SCT070 30/12 A2996 RMK AO2 SLP143 T03000117
KLNS 311753Z VRB04KT 10SM FEW070 28/12 A2997 RMK AO2 SLP147 T02830117 10289 20211 58006
KLNS 311653Z 34006KT 10SM CLR 28/13 A2999 RMK AO2 SLP151 T02830133
KLNS 311553Z 04008KT 10SM CLR 28/14 A3000 RMK AO2 SLP156 T02780139
KLNS 311453Z 06009KT 10SM CLR 26/14 A2999 RMK AO2 SLP154 T02610139 50004
KLNS 311353Z 04007KT 10SM CLR 26/17 A3000 RMK AO2 SLP154 T02560167
KLNS 311253Z 35006KT 10SM CLR 23/18 A2999 RMK AO2 SLP155 T02330183
KLNS 311153Z 29004KT 5SM BR CLR 21/19 A2998 RMK AO2 SLP149 70027 T02110189 10211 20178 51009
KLNS 311053Z 00000KT 3SM BR CLR 18/18 A2998 RMK AO2 SLP150 T01830183
KLNS 311019Z 00000KT 3SM BR SCT018 18/18 A2997 RMK AO2 T01830178
KLNS 310953Z AUTO 00000KT 6SM BR OVC019 19/18 A2996 RMK AO2 SLP143 T01890183
KLNS 310853Z AUTO 00000KT 7SM BKN022 19/18 A2995 RMK AO2 SLP140 T01890178 58001
KLNS 310753Z AUTO 34004KT 5SM BR BKN023 18/18 A2996 RMK AO2 SLP141 T01830178
KLNS 310751Z AUTO 35003KT 5SM BR BKN023 18/18 A2996 RMK AO2
KLNS 310653Z AUTO 00000KT 8SM FEW026 SCT065 19/18 A2996 RMK AO2 SLP141 T01890183
KLNS 310553Z AUTO 15004KT 7SM BKN060 BKN120 19/18 A2996 RMK AO2 SLP140 60027 T01890183 10244 20189 58002
KLNS 310453Z AUTO 00000KT 10SM BKN110 19/18 A2996 RMK AO2 SLP143 T01940183 402940178
KLNS 310353Z AUTO 36003KT 10SM CLR 19/18 A2996 RMK AO2 SLP142 T01940183
KLNS 310253Z AUTO 00000KT 10SM CLR 20/18 A2996 RMK AO2 SLP143 60027 T02000183 50005
KLNS 310153Z 13008KT 10SM BKN110 19/18 A2997 RMK AO2 RAE44 TSB02E17 SLP145 P0004 T01940178
KLNS 310123Z 09005KT 7SM -RA FEW055 SCT075 BKN110 19/18 A2998 RMK AO2 TSB02E17 P0004 T01890178
KLNS 310102Z 08007KT 6SM -TSRA BR FEW028 BKN043 OVC075 19/18 A2999 RMK AO2 TSB02 P0001 T01940178
KLNS 310057Z 36006KT 2SM VCTS RA BR FEW024 BKN032 OVC075 19/18 A2999 RMK AO2 P0001 T01940178
KLNS 310053Z 35007KT 1 1/2SM VCTS +RA BR BKN026 BKN048 OVC060 19/18 A2999 RMK AO2 RAB38 TSB26E48 SLP153 P0023 T01890178
KLNS 310049Z 36008KT 1 3/4SM VCTS +RA BR BKN024 OVC055 19/18 A2999 RMK AO2 RAB38 TSB26E48 P0019
KLNS 310046Z 35010KT 2 1/2SM +TSRA BR BKN024 BKN040 OVC055 20/18 A2999 RMK AO2 RAB38 TSB26 P0014 T02000178
KLNS 310036Z 35012G20KT 10SM TS BKN025 BKN029 OVC042 23/17 A2998 RMK AO2 LTG DSNT NE TSB26 T02330172
KLNS 310026Z 32004KT 10SM TS SCT025 BKN042 24/19 A2997 RMK AO2 LTG DSNT NE TSB26 T02440189
KLNS 310009Z 20007KT 10SM VCTS FEW050 24/18 A2996 RMK AO2 LTG DSNT NE T02440183
KLNS 302353Z 18008KT 10SM CLR 24/18 A2995 RMK AO2 SLP138 T02440178 10294 20244 53006
KLNS 302253Z 18008KT 10SM CLR 26/19 A2993 RMK AO2 SLP133 T02610189
KLNS 302153Z 16010KT 10SM SCT048 28/18 A2993 RMK AO2 SLP130 T02830178
KLNS 302053Z VRB05KT 10SM FEW050 29/16 A2993 RMK AO2 SLP131 T02890156 56015
KLNS 301953Z VRB06KT 10SM CLR 29/16 A2993 RMK AO2 SLP133 T02940156